Norfolk NAS, Virginia
Current Conditions -  °F | °C
As of 11:59 AM on Friday 24 Oct 2014 (Local Time) from KNGU Reporting Station
Broken Clouds Broken Clouds  
Wind Chill: 65°   Ceiling: 24000
Heat Index: 65°   Visibility: 10mi
Dew Point: 46°   Wind: 14mph
Humidity: 50%   Direction: 330°NNW
Pressure: 29.99"   Gusts: NA
Location:  36.93°N, 76.28°W
Report Text: KNGU 241559Z 33012KT 10SM FEW180 BKN240 18/08 A2999 RMK AO2 SLP156 T01830078 $
Loading
Personal Weather Stations






























Interactive Weather Map
Tropical Storm Tracking
New forecast layout! Learn more

10-Day Weather Forecast

Advertisements
Track Severe Weather on mobile